Lake View Terrace, California
Current Conditions -  °F | °C
As of 3:53 PM on Wednesday 28 Jan 2015 (Local Time) from KBUR Reporting Station
Clear Clear  
Wind Chill: 71°   Ceiling: Unl
Heat Index: 71°   Visibility: 10mi
Dew Point: 45°   Wind: 3mph
Humidity: 39%   Direction: 300°WNW
Pressure: 30.07"   Gusts: NA
Location:  34.3277°N, 118.389°W
Report Text: KBUR 282353Z 30003KT 10SM CLR 22/07 A3007 RMK AO2 SLP175 T02170072 10222 20172 56002
Loading
Personal Weather Stations






























Interactive Weather Map New forecast layout! Learn more

10-Day Weather Forecast

Advertisements
Track Severe Weather on mobile